createdAt,value
2018-07-08T00:00:16.835Z,15.37
2018-07-08T00:01:16.947Z,15.29
2018-07-08T00:02:16.222Z,15.30
2018-07-08T00:03:16.498Z,15.33
2018-07-08T00:04:16.804Z,15.59
2018-07-08T00:05:17.074Z,15.45
2018-07-08T00:06:16.397Z,15.33
2018-07-08T00:07:16.716Z,15.25
2018-07-08T00:08:17.016Z,15.38
2018-07-08T00:09:16.332Z,15.43
2018-07-08T00:10:16.617Z,15.29
2018-07-08T00:11:16.686Z,15.22
2018-07-08T00:12:16.953Z,15.22
2018-07-08T00:13:16.211Z,15.13
2018-07-08T00:14:16.481Z,15.22
2018-07-08T00:15:16.752Z,15.19
2018-07-08T00:16:17.010Z,15.16
2018-07-08T00:17:16.275Z,15.16
2018-07-08T00:18:16.554Z,15.05
2018-07-08T00:19:16.823Z,15.06
2018-07-08T00:20:17.089Z,15.06
2018-07-08T00:21:17.120Z,15.09
2018-07-08T00:22:16.386Z,15.08
2018-07-08T00:23:16.641Z,15.15
2018-07-08T00:24:16.904Z,15.04
2018-07-08T00:25:17.160Z,15.01
2018-07-08T00:26:16.419Z,15.00
2018-07-08T00:27:16.675Z,15.00
2018-07-08T00:28:16.938Z,15.00
2018-07-08T00:29:16.197Z,15.00
2018-07-08T00:30:16.465Z,15.00
2018-07-08T00:31:16.516Z,14.94
2018-07-08T00:32:16.777Z,14.96
2018-07-08T00:33:17.044Z,14.96
2018-07-08T00:34:16.315Z,14.94
2018-07-08T00:35:16.588Z,15.11
2018-07-08T00:36:16.851Z,15.02
2018-07-08T00:37:17.109Z,15.00
2018-07-08T00:38:16.367Z,14.87
2018-07-08T00:39:16.628Z,14.92
2018-07-08T00:40:16.906Z,14.92
2018-07-08T00:41:16.939Z,14.90
2018-07-08T00:42:16.208Z,14.85
2018-07-08T00:43:16.462Z,14.78
2018-07-08T00:44:16.726Z,14.69
2018-07-08T00:45:16.987Z,14.75
2018-07-08T00:46:16.249Z,14.64
2018-07-08T00:47:16.511Z,14.61
2018-07-08T00:48:16.774Z,14.61
2018-07-08T00:49:17.042Z,14.65
2018-07-08T00:50:16.326Z,14.72
2018-07-08T00:51:16.372Z,14.78
2018-07-08T00:52:16.634Z,14.48
2018-07-08T00:53:16.889Z,14.50
2018-07-08T00:54:17.151Z,14.61
2018-07-08T00:55:16.439Z,14.44
2018-07-08T00:56:16.703Z,14.54
2018-07-08T00:57:16.961Z,14.69
2018-07-08T00:58:16.272Z,14.69
2018-07-08T00:59:16.531Z,14.65
2018-07-08T01:00:16.835Z,14.60
2018-07-08T01:01:16.844Z,14.46
2018-07-08T01:02:17.106Z,14.44
2018-07-08T01:03:16.363Z,14.39
2018-07-08T01:04:16.620Z,14.38
2018-07-08T01:05:16.884Z,14.35
2018-07-08T01:06:17.132Z,14.21
2018-07-08T01:07:16.381Z,14.23
2018-07-08T01:08:16.641Z,14.31
2018-07-08T01:09:16.904Z,14.28
2018-07-08T01:10:17.180Z,14.27
2018-07-08T01:11:17.191Z,14.24
2018-07-08T01:12:16.446Z,14.26
2018-07-08T01:13:16.703Z,14.26
2018-07-08T01:14:16.962Z,14.27
2018-07-08T01:15:16.222Z,14.28
2018-07-08T01:16:16.493Z,14.31
2018-07-08T01:17:16.746Z,14.27
2018-07-08T01:18:17.000Z,14.28
2018-07-08T01:19:16.268Z,14.21
2018-07-08T01:20:16.534Z,14.20
2018-07-08T01:21:16.571Z,14.23
2018-07-08T01:22:16.831Z,14.26
2018-07-08T01:23:17.375Z,14.20
2018-07-08T01:24:16.641Z,14.21
2018-07-08T01:25:16.902Z,14.19
2018-07-08T01:26:17.479Z,14.24
2018-07-08T01:27:16.733Z,14.26
2018-07-08T01:28:17.005Z,14.23
2018-07-08T01:29:16.275Z,14.41
2018-07-08T01:30:16.554Z,14.12
2018-07-08T01:31:16.590Z,14.13
2018-07-08T01:32:16.854Z,14.05
2018-07-08T01:33:17.117Z,14.01
2018-07-08T01:34:16.388Z,14.01
2018-07-08T01:35:16.654Z,14.10
2018-07-08T01:36:16.916Z,14.20
2018-07-08T01:37:17.178Z,14.14
2018-07-08T01:38:16.438Z,14.12
2018-07-08T01:39:16.684Z,14.17
2018-07-08T01:40:16.948Z,14.12
2018-07-08T01:41:16.998Z,13.99
2018-07-08T01:42:16.256Z,14.05
2018-07-08T01:43:16.515Z,14.12
2018-07-08T01:44:16.818Z,14.10
2018-07-08T01:45:17.121Z,14.10
2018-07-08T01:46:16.387Z,14.09
2018-07-08T01:47:16.937Z,14.08
2018-07-08T01:48:16.205Z,14.05
2018-07-08T01:49:16.462Z,14.02
2018-07-08T01:50:16.726Z,14.06
2018-07-08T01:51:16.793Z,13.96
2018-07-08T01:52:17.057Z,13.96
2018-07-08T01:53:16.316Z,13.92
2018-07-08T01:54:16.580Z,13.92
2018-07-08T01:55:16.852Z,13.98
2018-07-08T01:56:17.121Z,14.01
2018-07-08T01:57:16.377Z,13.98
2018-07-08T01:58:16.638Z,14.08
2018-07-08T01:59:16.889Z,14.01
2018-07-08T02:00:17.162Z,14.09
2018-07-08T02:01:16.210Z,14.09
2018-07-08T02:02:16.491Z,14.02
2018-07-08T02:03:16.746Z,14.08
2018-07-08T02:04:17.013Z,14.01
2018-07-08T02:05:16.277Z,13.96
2018-07-08T02:06:16.534Z,13.89
2018-07-08T02:07:16.796Z,13.87
2018-07-08T02:08:17.054Z,13.82
2018-07-08T02:09:16.337Z,13.80
2018-07-08T02:10:16.606Z,13.80
2018-07-08T02:11:16.645Z,13.77
2018-07-08T02:12:16.913Z,13.77
2018-07-08T02:13:17.179Z,13.82
2018-07-08T02:14:16.449Z,13.72
2018-07-08T02:15:16.730Z,13.69
2018-07-08T02:16:16.989Z,13.70
2018-07-08T02:17:16.251Z,13.66
2018-07-08T02:18:16.513Z,13.65
2018-07-08T02:19:16.783Z,13.62
2018-07-08T02:20:17.071Z,13.59
2018-07-08T02:21:17.091Z,13.55
2018-07-08T02:22:16.353Z,13.56
2018-07-08T02:23:16.614Z,13.58
2018-07-08T02:24:16.882Z,13.58
2018-07-08T02:25:17.145Z,13.55
2018-07-08T02:26:16.422Z,13.54
2018-07-08T02:27:16.675Z,13.51
2018-07-08T02:28:16.935Z,13.50
2018-07-08T02:29:16.197Z,13.51
2018-07-08T02:30:16.470Z,13.51
2018-07-08T02:31:16.526Z,13.44
2018-07-08T02:32:16.799Z,13.47
2018-07-08T02:33:17.078Z,13.45
2018-07-08T02:34:16.352Z,13.54
2018-07-08T02:35:16.616Z,13.55
2018-07-08T02:36:16.894Z,13.54
2018-07-08T02:37:17.180Z,13.58
2018-07-08T02:38:16.468Z,13.56
2018-07-08T02:39:16.731Z,13.51
2018-07-08T02:40:17.333Z,13.55
2018-07-08T02:41:17.035Z,13.68
2018-07-08T02:42:16.297Z,13.62
2018-07-08T02:43:16.561Z,13.62
2018-07-08T02:44:16.833Z,13.61
2018-07-08T02:45:17.097Z,13.55
2018-07-08T02:46:16.363Z,13.58
2018-07-08T02:47:16.627Z,13.52
2018-07-08T02:48:16.900Z,13.51
2018-07-08T02:49:17.180Z,13.50
2018-07-08T02:50:16.443Z,13.48
2018-07-08T02:51:16.472Z,13.62
2018-07-08T02:52:16.729Z,13.59
2018-07-08T02:53:16.982Z,13.54
2018-07-08T02:54:16.237Z,13.45
2018-07-08T02:55:16.509Z,13.44
2018-07-08T02:56:16.785Z,13.40
2018-07-08T02:57:17.058Z,13.40
2018-07-08T02:58:16.331Z,13.33
2018-07-08T02:59:16.844Z,13.34
2018-07-08T03:00:17.117Z,13.37
2018-07-08T03:01:17.154Z,13.36
2018-07-08T03:02:16.419Z,13.34
2018-07-08T03:03:16.678Z,13.33
2018-07-08T03:04:17.238Z,13.33
2018-07-08T03:05:16.497Z,13.34
2018-07-08T03:06:16.756Z,13.36
2018-07-08T03:07:17.017Z,13.37
2018-07-08T03:08:16.288Z,13.36
2018-07-08T03:09:16.551Z,13.34
2018-07-08T03:10:16.832Z,13.29
2018-07-08T03:11:16.867Z,13.29
2018-07-08T03:12:17.137Z,13.29
2018-07-08T03:13:16.399Z,13.12
2018-07-08T03:14:16.671Z,13.19
2018-07-08T03:15:16.940Z,13.29
2018-07-08T03:16:16.202Z,13.19
2018-07-08T03:17:16.460Z,13.14
2018-07-08T03:18:16.718Z,13.14
2018-07-08T03:19:16.972Z,13.04
2018-07-08T03:20:16.240Z,13.10
2018-07-08T03:21:16.277Z,13.11
2018-07-08T03:22:16.545Z,13.07
2018-07-08T03:23:16.811Z,13.04
2018-07-08T03:24:17.076Z,13.03
2018-07-08T03:25:16.419Z,13.10
2018-07-08T03:26:16.682Z,13.29
2018-07-08T03:27:16.957Z,13.12
2018-07-08T03:28:16.224Z,13.07
2018-07-08T03:29:16.498Z,13.03
2018-07-08T03:30:16.757Z,13.11
2018-07-08T03:31:16.801Z,13.04
2018-07-08T03:32:17.070Z,13.01
2018-07-08T03:33:16.329Z,12.86
2018-07-08T03:34:16.593Z,12.86
2018-07-08T03:35:16.868Z,12.84
2018-07-08T03:36:17.433Z,12.81
2018-07-08T03:37:16.702Z,12.81
2018-07-08T03:38:16.975Z,12.82
2018-07-08T03:39:16.228Z,12.81
2018-07-08T03:40:16.492Z,12.82
2018-07-08T03:41:16.541Z,12.84
2018-07-08T03:42:16.791Z,12.82
2018-07-08T03:43:17.059Z,12.82
2018-07-08T03:44:16.324Z,12.82
2018-07-08T03:45:16.585Z,12.84
2018-07-08T03:46:16.842Z,12.79
2018-07-08T03:47:17.114Z,12.81
2018-07-08T03:48:16.371Z,12.85
2018-07-08T03:49:16.630Z,12.85
2018-07-08T03:50:16.887Z,12.91
2018-07-08T03:51:16.930Z,12.93
2018-07-08T03:52:17.188Z,12.91
2018-07-08T03:53:16.457Z,12.84
2018-07-08T03:54:16.716Z,12.78
2018-07-08T03:55:16.975Z,12.86
2018-07-08T03:56:16.235Z,12.78
2018-07-08T03:57:16.506Z,12.79
2018-07-08T03:58:16.770Z,12.84
2018-07-08T03:59:17.032Z,12.86
2018-07-08T04:00:16.302Z,12.90
2018-07-08T04:01:16.353Z,12.98
2018-07-08T04:02:16.615Z,13.04
2018-07-08T04:03:16.876Z,13.12
2018-07-08T04:04:17.134Z,13.29
2018-07-08T04:05:16.397Z,13.33
2018-07-08T04:06:16.656Z,13.28
2018-07-08T04:07:16.909Z,13.26
2018-07-08T04:08:17.166Z,13.26
2018-07-08T04:09:16.424Z,13.23
2018-07-08T04:10:16.691Z,13.28
2018-07-08T04:11:16.728Z,13.29
2018-07-08T04:12:16.977Z,13.28
2018-07-08T04:13:16.232Z,13.34
2018-07-08T04:14:16.497Z,13.30
2018-07-08T04:15:16.789Z,13.38
2018-07-08T04:16:17.089Z,13.43
2018-07-08T04:17:16.345Z,13.47
2018-07-08T04:18:16.605Z,13.52
2018-07-08T04:19:16.866Z,13.55
2018-07-08T04:20:17.134Z,13.59
2018-07-08T04:21:17.176Z,13.66
2018-07-08T04:22:16.446Z,13.69
2018-07-08T04:23:16.706Z,13.70
2018-07-08T04:24:16.973Z,13.77
2018-07-08T04:25:16.242Z,13.83
2018-07-08T04:26:16.521Z,13.79
2018-07-08T04:27:16.790Z,13.89
2018-07-08T04:28:17.057Z,13.92
2018-07-08T04:29:16.318Z,13.92
2018-07-08T04:30:16.648Z,13.96
2018-07-08T04:31:16.664Z,14.02
2018-07-08T04:32:16.924Z,14.10
2018-07-08T04:33:17.180Z,14.16
2018-07-08T04:34:16.436Z,14.12
2018-07-08T04:35:16.694Z,14.14
2018-07-08T04:36:16.955Z,14.12
2018-07-08T04:37:16.218Z,14.26
2018-07-08T04:38:16.480Z,14.27
2018-07-08T04:39:16.747Z,14.39
2018-07-08T04:40:17.015Z,14.32
2018-07-08T04:41:17.057Z,14.38
2018-07-08T04:42:16.321Z,14.39
2018-07-08T04:43:16.592Z,14.43
2018-07-08T04:44:16.853Z,14.36
2018-07-08T04:45:17.128Z,14.36
2018-07-08T04:46:16.387Z,14.48
2018-07-08T04:47:16.646Z,14.46
2018-07-08T04:48:16.901Z,14.46
2018-07-08T04:49:17.210Z,14.64
2018-07-08T04:50:16.631Z,14.60
2018-07-08T04:51:16.667Z,14.69
2018-07-08T04:52:16.923Z,14.65
2018-07-08T04:53:17.179Z,14.68
2018-07-08T04:54:16.447Z,14.80
2018-07-08T04:55:16.711Z,14.82
2018-07-08T04:56:16.966Z,14.74
2018-07-08T04:57:16.222Z,14.68
2018-07-08T04:58:16.477Z,14.96
2018-07-08T04:59:16.733Z,15.00
2018-07-08T05:00:17.010Z,15.04
2018-07-08T05:01:17.056Z,15.05
2018-07-08T05:02:16.325Z,15.12
2018-07-08T05:03:16.587Z,15.23
2018-07-08T05:04:16.848Z,15.36
2018-07-08T05:05:17.110Z,15.40
2018-07-08T05:06:16.376Z,15.57
2018-07-08T05:07:16.640Z,15.65
2018-07-08T05:08:16.906Z,15.75
2018-07-08T05:09:17.165Z,15.91
2018-07-08T05:10:16.430Z,15.99
2018-07-08T05:11:16.471Z,16.11
2018-07-08T05:12:16.728Z,16.09
2018-07-08T05:13:16.997Z,15.99
2018-07-08T05:14:16.258Z,15.95
2018-07-08T05:15:16.517Z,16.03
2018-07-08T05:16:16.777Z,16.40
2018-07-08T05:17:17.381Z,16.62
2018-07-08T05:18:16.637Z,16.93
2018-07-08T05:19:16.906Z,16.95
2018-07-08T05:20:17.171Z,16.71
2018-07-08T05:21:16.235Z,16.75
2018-07-08T05:22:16.506Z,16.94
2018-07-08T05:23:16.769Z,17.08
2018-07-08T05:24:17.027Z,16.97
2018-07-08T05:25:16.282Z,17.00
2018-07-08T05:26:16.545Z,17.17
2018-07-08T05:27:16.807Z,17.16
2018-07-08T05:28:17.069Z,17.13
2018-07-08T05:29:16.333Z,17.64
2018-07-08T05:30:16.618Z,17.70
2018-07-08T05:31:16.636Z,17.80
2018-07-08T05:32:16.909Z,17.78
2018-07-08T05:33:17.177Z,17.71
2018-07-08T05:34:16.429Z,17.45
2018-07-08T05:35:16.705Z,17.60
2018-07-08T05:36:16.980Z,17.78
2018-07-08T05:37:16.237Z,17.91
2018-07-08T05:38:16.497Z,17.98
2018-07-08T05:39:16.759Z,17.99
2018-07-08T05:40:17.033Z,18.05
2018-07-08T05:41:17.078Z,18.15
2018-07-08T05:42:16.335Z,18.13
2018-07-08T05:43:16.596Z,18.36
2018-07-08T05:44:16.850Z,18.49
2018-07-08T05:45:17.126Z,18.58
2018-07-08T05:46:16.385Z,18.91
2018-07-08T05:47:16.644Z,19.10
2018-07-08T05:48:16.913Z,19.31
2018-07-08T05:49:17.174Z,19.73
2018-07-08T05:50:16.454Z,19.89
2018-07-08T05:51:16.492Z,20.08
2018-07-08T05:52:16.754Z,20.15
2018-07-08T05:53:17.012Z,19.42
2018-07-08T05:54:16.276Z,19.29
2018-07-08T05:55:16.549Z,19.40
2018-07-08T05:56:16.821Z,19.08
2018-07-08T05:57:17.633Z,19.10
2018-07-08T05:58:16.903Z,19.29
2018-07-08T05:59:17.167Z,19.60
2018-07-08T06:00:16.433Z,19.85
2018-07-08T06:01:16.472Z,19.97
2018-07-08T06:02:16.732Z,19.85
2018-07-08T06:03:17.014Z,19.82
2018-07-08T06:04:16.278Z,19.88
2018-07-08T06:05:16.539Z,20.01
2018-07-08T06:06:16.811Z,20.11
2018-07-08T06:07:17.073Z,20.04
2018-07-08T06:08:16.341Z,19.96
2018-07-08T06:09:16.590Z,19.87
2018-07-08T06:10:16.854Z,20.11
2018-07-08T06:11:16.896Z,20.21
2018-07-08T06:12:17.160Z,20.10
2018-07-08T06:13:16.421Z,20.08
2018-07-08T06:14:16.686Z,20.22
2018-07-08T06:15:17.007Z,20.00
2018-07-08T06:16:16.331Z,19.91
2018-07-08T06:17:16.596Z,19.99
2018-07-08T06:18:16.857Z,19.87
2018-07-08T06:19:17.121Z,19.92
2018-07-08T06:20:16.398Z,19.62
2018-07-08T06:21:16.414Z,20.01
2018-07-08T06:22:16.679Z,19.82
2018-07-08T06:23:16.951Z,19.81
2018-07-08T06:24:16.207Z,19.49
2018-07-08T06:25:16.465Z,19.17
2018-07-08T06:26:16.811Z,19.47
2018-07-08T06:27:17.071Z,19.81
2018-07-08T06:28:16.329Z,19.96
2018-07-08T06:29:16.589Z,19.70
2018-07-08T06:30:16.858Z,19.81
2018-07-08T06:31:16.904Z,20.00
2018-07-08T06:32:17.156Z,20.00
2018-07-08T06:33:16.409Z,19.91
2018-07-08T06:34:16.669Z,19.88
2018-07-08T06:35:16.933Z,19.85
2018-07-08T06:36:17.198Z,19.81
2018-07-08T06:37:16.465Z,19.73
2018-07-08T06:38:16.729Z,19.84
2018-07-08T06:39:17.013Z,19.81
2018-07-08T06:40:16.419Z,19.89
2018-07-08T06:41:16.473Z,19.88
2018-07-08T06:42:16.733Z,19.97
2018-07-08T06:43:16.994Z,20.00
2018-07-08T06:44:16.363Z,20.03
2018-07-08T06:45:16.626Z,19.99
2018-07-08T06:46:16.882Z,20.22
2018-07-08T06:47:17.140Z,20.32
2018-07-08T06:48:16.411Z,20.32
2018-07-08T06:49:16.671Z,20.46
2018-07-08T06:50:16.942Z,20.43
2018-07-08T06:51:16.971Z,20.34
2018-07-08T06:52:16.225Z,20.65
2018-07-08T06:53:16.496Z,20.79
2018-07-08T06:54:16.761Z,20.86
2018-07-08T06:55:17.024Z,21.12
2018-07-08T06:56:16.291Z,21.20
2018-07-08T06:57:16.556Z,21.27
2018-07-08T06:58:16.816Z,21.48
2018-07-08T06:59:17.086Z,21.76
2018-07-08T07:00:16.375Z,22.15
2018-07-08T07:01:16.405Z,22.41
2018-07-08T07:02:16.665Z,22.41
2018-07-08T07:03:16.929Z,22.57
2018-07-08T07:04:17.188Z,23.36
2018-07-08T07:05:16.453Z,23.78
2018-07-08T07:06:16.712Z,23.84
2018-07-08T07:07:16.976Z,24.21
2018-07-08T07:08:16.237Z,24.32
2018-07-08T07:09:16.488Z,23.44
2018-07-08T07:10:16.757Z,23.34
2018-07-08T07:11:16.796Z,23.38
2018-07-08T07:12:17.068Z,23.44
2018-07-08T07:13:16.333Z,23.45
2018-07-08T07:14:16.591Z,23.90
2018-07-08T07:15:17.067Z,24.68
2018-07-08T07:16:16.329Z,24.76
2018-07-08T07:17:16.590Z,24.42
2018-07-08T07:18:16.851Z,24.89
2018-07-08T07:19:17.109Z,24.68
2018-07-08T07:20:16.375Z,24.78
2018-07-08T07:21:16.426Z,24.66
2018-07-08T07:22:16.686Z,24.38
2018-07-08T07:23:16.947Z,24.32
2018-07-08T07:24:16.208Z,24.88
2018-07-08T07:25:16.476Z,25.36
2018-07-08T07:26:16.734Z,24.57
2018-07-08T07:27:16.992Z,25.40
2018-07-08T07:28:16.252Z,25.43
2018-07-08T07:29:16.520Z,25.81
2018-07-08T07:30:16.796Z,26.51
2018-07-08T07:31:16.841Z,26.33
2018-07-08T07:32:17.096Z,26.58
2018-07-08T07:33:16.353Z,26.15
2018-07-08T07:34:16.611Z,26.17
2018-07-08T07:35:16.881Z,26.37
2018-07-08T07:36:17.137Z,27.24
2018-07-08T07:37:16.425Z,27.08
2018-07-08T07:38:16.746Z,27.36
2018-07-08T07:39:17.026Z,27.84
2018-07-08T07:40:16.297Z,28.04
2018-07-08T07:41:16.324Z,27.40
2018-07-08T07:42:16.579Z,27.38
2018-07-08T07:43:16.843Z,27.56
2018-07-08T07:44:17.101Z,27.46
2018-07-08T07:45:16.358Z,28.24
2018-07-08T07:46:16.629Z,28.45
2018-07-08T07:47:16.899Z,27.78
2018-07-08T07:48:17.167Z,27.89
2018-07-08T07:49:16.426Z,27.86
2018-07-08T07:50:16.693Z,28.28
2018-07-08T07:51:16.763Z,28.14
2018-07-08T07:52:17.052Z,27.78
2018-07-08T07:53:16.312Z,27.74
2018-07-08T07:54:16.594Z,28.44
2018-07-08T07:55:16.855Z,28.79
2018-07-08T07:56:17.120Z,29.14
2018-07-08T07:57:16.372Z,29.22
2018-07-08T07:58:16.636Z,29.76
2018-07-08T07:59:16.894Z,29.08
2018-07-08T08:00:17.179Z,29.18
2018-07-08T08:01:16.205Z,29.52
2018-07-08T08:02:16.476Z,29.98
2018-07-08T08:03:16.750Z,29.66
2018-07-08T08:04:17.004Z,29.69
2018-07-08T08:05:16.242Z,30.16
2018-07-08T08:06:16.499Z,29.96
2018-07-08T08:07:16.757Z,29.32
2018-07-08T08:08:17.022Z,29.55
2018-07-08T08:09:16.294Z,29.59
2018-07-08T08:10:16.557Z,29.85
2018-07-08T08:11:16.605Z,29.73
2018-07-08T08:12:16.868Z,29.71
2018-07-08T08:13:17.132Z,29.95
2018-07-08T08:14:16.397Z,29.65
2018-07-08T08:15:16.660Z,29.61
2018-07-08T08:16:16.918Z,29.75
2018-07-08T08:17:17.178Z,30.55
2018-07-08T08:18:16.436Z,29.93
2018-07-08T08:19:16.699Z,30.06
2018-07-08T08:20:16.976Z,29.72
2018-07-08T08:21:17.002Z,30.43
2018-07-08T08:22:16.272Z,30.46
2018-07-08T08:23:16.538Z,29.85
2018-07-08T08:24:16.812Z,29.48
2018-07-08T08:25:17.074Z,29.69
2018-07-08T08:26:16.337Z,30.70
2018-07-08T08:27:16.635Z,30.73
2018-07-08T08:28:16.889Z,31.07
2018-07-08T08:29:17.160Z,30.99
2018-07-08T08:30:16.437Z,31.02
2018-07-08T08:31:16.478Z,31.31
2018-07-08T08:32:16.743Z,30.66
2018-07-08T08:33:16.999Z,30.30
2018-07-08T08:34:16.257Z,30.71
2018-07-08T08:35:16.520Z,30.68
2018-07-08T08:36:16.774Z,31.13
2018-07-08T08:37:17.035Z,31.09
2018-07-08T08:38:16.343Z,30.46
2018-07-08T08:39:16.766Z,31.12
2018-07-08T08:40:17.033Z,31.75
2018-07-08T08:41:17.079Z,30.59
2018-07-08T08:42:16.347Z,30.18
2018-07-08T08:43:16.610Z,30.98
2018-07-08T08:44:16.879Z,31.86
2018-07-08T08:45:17.140Z,31.85
2018-07-08T08:46:16.402Z,31.78
2018-07-08T08:47:16.661Z,31.39
2018-07-08T08:48:16.938Z,30.92
2018-07-08T08:49:17.194Z,31.58
2018-07-08T08:50:16.458Z,29.72
2018-07-08T08:51:16.511Z,30.84
2018-07-08T08:52:16.768Z,30.64
2018-07-08T08:53:17.026Z,31.12
2018-07-08T08:54:16.292Z,31.79
2018-07-08T08:55:16.561Z,32.29
2018-07-08T08:56:16.829Z,32.23
2018-07-08T08:57:17.101Z,29.58
2018-07-08T08:58:16.364Z,27.91
2018-07-08T08:59:16.670Z,29.62
2018-07-08T09:00:16.951Z,30.67
2018-07-08T09:01:16.989Z,28.52
2018-07-08T09:02:16.257Z,28.11
2018-07-08T09:03:16.513Z,28.02
2018-07-08T09:04:16.768Z,28.06
2018-07-08T09:05:17.036Z,28.10
2018-07-08T09:06:16.293Z,28.76
2018-07-08T09:07:16.554Z,30.20
2018-07-08T09:08:16.855Z,30.56
2018-07-08T09:09:17.116Z,30.16
2018-07-08T09:10:16.382Z,27.89
2018-07-08T09:11:16.426Z,28.98
2018-07-08T09:12:16.694Z,30.27
2018-07-08T09:13:16.949Z,29.66
2018-07-08T09:14:16.219Z,28.41
2018-07-08T09:15:16.505Z,28.83
2018-07-08T09:16:16.759Z,29.09
2018-07-08T09:17:17.046Z,29.30
2018-07-08T09:18:16.383Z,29.71
2018-07-08T09:19:16.650Z,30.98
2018-07-08T09:20:16.937Z,31.57
2018-07-08T09:21:16.962Z,31.68
2018-07-08T09:22:16.217Z,31.68
2018-07-08T09:23:16.481Z,31.84
2018-07-08T09:24:16.750Z,31.25
2018-07-08T09:25:17.024Z,32.08
2018-07-08T09:26:16.292Z,31.32
2018-07-08T09:27:16.546Z,29.09
2018-07-08T09:28:16.806Z,29.93
2018-07-08T09:29:17.089Z,30.80
2018-07-08T09:30:16.415Z,31.16
2018-07-08T09:31:16.443Z,32.36
2018-07-08T09:32:16.707Z,32.11
2018-07-08T09:33:16.982Z,30.52
2018-07-08T09:34:16.239Z,30.82
2018-07-08T09:35:16.524Z,31.24
2018-07-08T09:36:16.783Z,31.36
2018-07-08T09:37:17.051Z,31.40
2018-07-08T09:38:16.299Z,31.03
2018-07-08T09:39:16.656Z,30.63
2018-07-08T09:40:16.262Z,32.04
2018-07-08T09:41:16.277Z,30.85
2018-07-08T09:42:16.541Z,29.18
2018-07-08T09:43:16.809Z,30.07
2018-07-08T09:44:17.077Z,30.64
2018-07-08T09:45:16.354Z,31.40
2018-07-08T09:46:16.614Z,30.63
2018-07-08T09:47:16.877Z,31.09
2018-07-08T09:48:17.146Z,31.75
2018-07-08T09:49:16.411Z,32.57
2018-07-08T09:50:16.699Z,32.30
2018-07-08T09:51:16.843Z,32.90
2018-07-08T09:52:17.100Z,33.69
2018-07-08T09:53:16.368Z,32.80
2018-07-08T09:54:16.626Z,32.81
2018-07-08T09:55:16.892Z,29.98
2018-07-08T09:56:17.211Z,29.44
2018-07-08T09:57:16.470Z,29.27
2018-07-08T09:58:16.744Z,29.58
2018-07-08T09:59:17.009Z,31.16
2018-07-08T10:00:16.281Z,31.56
2018-07-08T10:01:16.312Z,32.60
2018-07-08T10:02:16.577Z,32.28
2018-07-08T10:03:16.833Z,32.14
2018-07-08T10:04:17.097Z,31.81
2018-07-08T10:05:16.355Z,32.35
2018-07-08T10:06:16.611Z,32.97
2018-07-08T10:07:16.868Z,33.07
2018-07-08T10:08:17.131Z,33.27
2018-07-08T10:09:16.384Z,32.42
2018-07-08T10:10:16.671Z,32.66
2018-07-08T10:11:16.693Z,32.50
2018-07-08T10:12:16.951Z,32.83
2018-07-08T10:13:16.263Z,30.67
2018-07-08T10:14:16.528Z,30.16
2018-07-08T10:15:16.797Z,29.73
2018-07-08T10:16:17.082Z,32.22
2018-07-08T10:17:16.460Z,32.39
2018-07-08T10:18:16.739Z,32.75
2018-07-08T10:19:16.995Z,32.76
2018-07-08T10:20:16.391Z,31.27
2018-07-08T10:21:16.445Z,30.27
2018-07-08T10:22:16.700Z,31.58
2018-07-08T10:23:16.967Z,32.05
2018-07-08T10:24:16.229Z,32.65
2018-07-08T10:25:16.507Z,33.50
2018-07-08T10:26:16.793Z,33.57
2018-07-08T10:27:17.048Z,33.51
2018-07-08T10:28:16.307Z,33.68
2018-07-08T10:29:16.565Z,33.65
2018-07-08T10:30:16.856Z,32.90
2018-07-08T10:31:16.880Z,32.79
2018-07-08T10:32:17.147Z,32.70
2018-07-08T10:33:16.412Z,33.09
2018-07-08T10:34:16.689Z,32.53
2018-07-08T10:35:16.956Z,32.42
2018-07-08T10:36:16.220Z,33.15
2018-07-08T10:37:16.487Z,33.40
2018-07-08T10:38:16.804Z,33.76
2018-07-08T10:39:16.222Z,33.82
2018-07-08T10:40:16.505Z,31.85
2018-07-08T10:41:16.551Z,32.03
2018-07-08T10:42:16.826Z,32.49
2018-07-08T10:43:17.109Z,32.69
2018-07-08T10:44:16.403Z,32.76
2018-07-08T10:45:16.663Z,33.51
2018-07-08T10:46:16.917Z,32.75
2018-07-08T10:47:17.180Z,31.74
2018-07-08T10:48:16.453Z,31.75
2018-07-08T10:49:16.725Z,31.49
2018-07-08T10:50:16.993Z,29.64
2018-07-08T10:51:17.020Z,31.19
2018-07-08T10:52:16.271Z,31.78
2018-07-08T10:53:16.527Z,32.35
2018-07-08T10:54:16.785Z,31.84
2018-07-08T10:55:17.058Z,32.32
2018-07-08T10:56:16.449Z,32.36
2018-07-08T10:57:16.713Z,33.15
2018-07-08T10:58:16.973Z,33.07
2018-07-08T10:59:16.234Z,32.65
2018-07-08T11:00:16.502Z,32.84
2018-07-08T11:01:16.567Z,32.50
2018-07-08T11:02:16.832Z,32.75
2018-07-08T11:03:17.101Z,31.19
2018-07-08T11:04:16.357Z,30.03
2018-07-08T11:05:16.626Z,31.33
2018-07-08T11:06:16.904Z,32.73
2018-07-08T11:07:17.171Z,32.98
2018-07-08T11:08:16.436Z,32.32
2018-07-08T11:09:16.703Z,32.46
2018-07-08T11:10:16.990Z,32.75
2018-07-08T11:11:17.012Z,32.40
2018-07-08T11:12:16.535Z,33.12
2018-07-08T11:13:16.792Z,33.09
2018-07-08T11:14:17.058Z,33.52
2018-07-08T11:15:16.317Z,32.66
2018-07-08T11:16:16.564Z,33.25
2018-07-08T11:17:16.835Z,33.18
2018-07-08T11:18:17.097Z,33.11
2018-07-08T11:19:16.353Z,32.17
2018-07-08T11:20:16.619Z,32.87
2018-07-08T11:21:16.662Z,33.77
2018-07-08T11:22:16.917Z,33.57
2018-07-08T11:23:17.183Z,33.41
2018-07-08T11:24:16.440Z,33.29
2018-07-08T11:25:16.711Z,33.36
2018-07-08T11:26:16.965Z,32.83
2018-07-08T11:27:16.217Z,32.72
2018-07-08T11:28:16.473Z,32.80
2018-07-08T11:29:16.735Z,32.75
2018-07-08T11:30:17.012Z,32.94
2018-07-08T11:31:17.035Z,32.46
2018-07-08T11:32:16.299Z,32.39
2018-07-08T11:33:16.565Z,32.30
2018-07-08T11:34:16.823Z,32.77
2018-07-08T11:35:17.080Z,32.97
2018-07-08T11:36:16.328Z,32.66
2018-07-08T11:37:16.594Z,32.47
2018-07-08T11:38:16.852Z,32.75
2018-07-08T11:39:17.130Z,31.77
2018-07-08T11:40:16.393Z,32.17
2018-07-08T11:41:16.443Z,32.47
2018-07-08T11:42:16.708Z,32.70
2018-07-08T11:43:16.970Z,32.10
2018-07-08T11:44:16.228Z,30.77
2018-07-08T11:45:16.510Z,31.47
2018-07-08T11:46:16.766Z,30.78
2018-07-08T11:47:17.030Z,30.70
2018-07-08T11:48:16.293Z,31.09
2018-07-08T11:49:16.555Z,31.09
2018-07-08T11:50:16.831Z,31.05
2018-07-08T11:51:16.869Z,30.75
2018-07-08T11:52:17.139Z,30.78
2018-07-08T11:53:16.409Z,30.80
2018-07-08T11:54:16.675Z,30.91
2018-07-08T11:55:16.954Z,30.96
2018-07-08T11:56:16.244Z,30.66
2018-07-08T11:57:16.504Z,29.58
2018-07-08T11:58:16.767Z,29.84
2018-07-08T11:59:17.021Z,29.55
2018-07-08T12:00:16.293Z,29.48
2018-07-08T12:01:16.336Z,29.19
2018-07-08T12:02:16.595Z,29.05
2018-07-08T12:03:16.852Z,28.98
2018-07-08T12:04:17.121Z,28.98
2018-07-08T12:05:16.406Z,28.45
2018-07-08T12:06:16.666Z,28.25
2018-07-08T12:07:16.959Z,27.91
2018-07-08T12:08:16.219Z,27.84
2018-07-08T12:09:16.476Z,27.96
2018-07-08T12:10:16.748Z,28.10
2018-07-08T12:11:16.785Z,27.53
2018-07-08T12:12:17.048Z,27.49
2018-07-08T12:13:16.306Z,27.47
2018-07-08T12:14:16.574Z,27.43
2018-07-08T12:15:16.829Z,27.45
2018-07-08T12:16:17.093Z,27.46
2018-07-08T12:17:16.366Z,27.54
2018-07-08T12:18:16.638Z,27.56
2018-07-08T12:19:16.904Z,27.59
2018-07-08T12:20:17.201Z,27.28
2018-07-08T12:21:16.290Z,27.08
2018-07-08T12:22:16.677Z,26.74
2018-07-08T12:23:16.944Z,26.33
2018-07-08T12:24:16.214Z,26.37
2018-07-08T12:25:16.477Z,26.30
2018-07-08T12:26:16.734Z,26.23
2018-07-08T12:27:17.004Z,26.19
2018-07-08T12:28:16.253Z,26.10
2018-07-08T12:29:16.553Z,26.05
2018-07-08T12:30:16.851Z,25.98
2018-07-08T12:31:16.848Z,25.94
2018-07-08T12:32:17.105Z,25.80
2018-07-08T12:33:16.364Z,25.87
2018-07-08T12:34:16.624Z,25.92
2018-07-08T12:35:16.894Z,26.02
2018-07-08T12:36:17.160Z,25.92
2018-07-08T12:37:16.427Z,25.77
2018-07-08T12:38:16.692Z,25.77
2018-07-08T12:39:16.971Z,25.91
2018-07-08T12:40:16.238Z,25.98
2018-07-08T12:41:16.283Z,25.98
2018-07-08T12:42:16.542Z,25.98
2018-07-08T12:43:16.797Z,26.06
2018-07-08T12:44:17.145Z,26.06
2018-07-08T12:45:16.765Z,26.16
2018-07-08T12:46:17.024Z,26.12
2018-07-08T12:47:16.280Z,26.10
2018-07-08T12:48:16.553Z,26.06
2018-07-08T12:49:16.816Z,26.09
2018-07-08T12:50:17.081Z,26.16
2018-07-08T12:51:17.122Z,26.09
2018-07-08T12:52:16.417Z,25.94